createdAt,value
2022-12-16T00:01:09.837Z,100745.81
2022-12-16T00:03:37.585Z,100756.38
2022-12-16T00:06:05.227Z,100754.16
2022-12-16T00:08:33.496Z,100756.38
2022-12-16T00:11:00.962Z,100756.38
2022-12-16T00:13:29.276Z,100753.66
2022-12-16T00:15:56.402Z,100752.97
2022-12-16T00:18:22.886Z,100755.16
2022-12-16T00:20:52.495Z,100762.16
2022-12-16T00:23:22.509Z,100765.69
2022-12-16T00:25:49.146Z,100764.03
2022-12-16T00:28:16.910Z,100770.00
2022-12-16T00:30:44.004Z,100769.84
2022-12-16T00:33:13.176Z,100769.16
2022-12-16T00:35:44.505Z,100767.28
2022-12-16T00:38:15.580Z,100761.84
2022-12-16T00:40:42.264Z,100764.94
2022-12-16T00:43:08.902Z,100774.28
2022-12-16T00:45:37.668Z,100774.78
2022-12-16T00:48:04.154Z,100774.97
2022-12-16T00:50:31.024Z,100774.63
2022-12-16T00:52:57.663Z,100782.94
2022-12-16T00:55:24.214Z,100782.78
2022-12-16T00:57:50.697Z,100791.94
2022-12-16T01:00:18.872Z,100784.81
2022-12-16T01:02:48.114Z,100785.84
2022-12-16T01:05:16.657Z,100782.44
2022-12-16T01:07:43.490Z,100776.50
2022-12-16T01:10:11.097Z,100779.88
2022-12-16T01:12:38.703Z,100779.22
2022-12-16T01:15:08.160Z,100780.91
2022-12-16T01:17:35.247Z,100783.16
2022-12-16T01:20:02.328Z,100783.81
2022-12-16T01:22:32.464Z,100786.75
2022-12-16T01:24:59.921Z,100787.09
2022-12-16T01:27:27.364Z,100787.56
2022-12-16T01:29:53.793Z,100786.88
2022-12-16T01:32:22.599Z,100789.59
2022-12-16T01:34:52.603Z,100790.66
2022-12-16T01:37:22.767Z,100788.63
2022-12-16T01:39:49.368Z,100785.22
2022-12-16T01:42:17.564Z,100791.84
2022-12-16T01:44:45.553Z,100777.06
2022-12-16T01:47:23.978Z,100779.97
2022-12-16T01:49:55.620Z,100778.75
2022-12-16T01:52:28.007Z,100774.34
2022-12-16T01:55:02.167Z,100783.34
2022-12-16T01:57:37.727Z,100779.44
2022-12-16T02:00:06.427Z,100782.00
2022-12-16T02:02:41.140Z,100782.84
2022-12-16T02:05:22.877Z,100784.19
2022-12-16T02:08:21.474Z,100778.94
2022-12-16T02:11:04.704Z,100785.72
2022-12-16T02:14:08.782Z,100784.03
2022-12-16T02:16:59.862Z,100781.16
2022-12-16T02:19:45.832Z,100778.22
2022-12-16T02:22:42.949Z,100777.03
2022-12-16T02:25:51.285Z,100786.03
2022-12-16T02:28:52.490Z,100779.72
2022-12-16T02:31:32.567Z,100782.81
2022-12-16T02:34:26.200Z,100780.28
2022-12-16T02:37:18.111Z,100784.34
2022-12-16T02:39:56.865Z,100782.31
2022-12-16T02:42:40.208Z,100783.00
2022-12-16T02:45:13.276Z,100774.16
2022-12-16T02:47:39.912Z,100770.06
2022-12-16T02:50:17.468Z,100777.22
2022-12-16T02:52:44.131Z,100777.22
2022-12-16T02:55:11.203Z,100773.63
2022-12-16T03:02:34.249Z,100769.91
2022-12-16T03:05:08.729Z,100768.22
2022-12-16T03:07:38.417Z,100762.78
2022-12-16T03:10:09.481Z,100759.84
2022-12-16T03:12:41.959Z,100758.50
2022-12-16T03:15:10.101Z,100762.44
2022-12-16T03:17:39.643Z,100766.31
2022-12-16T03:20:11.364Z,100770.56
2022-12-16T03:22:42.089Z,100770.56
2022-12-16T03:25:16.477Z,100763.25
2022-12-16T03:29:01.633Z,100769.69
2022-12-16T03:31:37.198Z,100762.41
2022-12-16T03:34:07.215Z,100768.16
2022-12-16T03:36:37.038Z,100766.94
2022-12-16T03:39:06.017Z,100758.81
2022-12-16T03:41:33.080Z,100759.13
2022-12-16T03:43:59.818Z,100758.50
2022-12-16T03:46:26.687Z,100755.09
2022-12-16T03:48:53.128Z,100761.53
2022-12-16T03:51:19.688Z,100750.31
2022-12-16T03:53:46.663Z,100754.38
2022-12-16T03:56:13.324Z,100747.94
2022-12-16T03:58:40.400Z,100752.34
2022-12-16T04:01:09.434Z,100748.97
2022-12-16T04:03:37.549Z,100751.34
2022-12-16T04:06:05.121Z,100755.78
2022-12-16T04:08:31.578Z,100755.59
2022-12-16T04:11:16.591Z,100755.41
2022-12-16T04:14:01.645Z,100763.19
2022-12-16T04:16:48.179Z,100767.09
2022-12-16T04:19:50.460Z,100772.50
2022-12-16T04:22:39.919Z,100768.75
2022-12-16T04:25:22.467Z,100771.16
2022-12-16T04:27:48.861Z,100767.41
2022-12-16T04:30:20.506Z,100771.66
2022-12-16T04:33:14.773Z,100772.00
2022-12-16T04:35:59.914Z,100776.72
2022-12-16T04:38:45.070Z,100775.72
2022-12-16T04:41:30.786Z,100778.31
2022-12-16T04:44:16.324Z,100787.94
2022-12-16T04:47:01.342Z,100784.38
2022-12-16T04:49:51.360Z,100789.09
2022-12-16T04:52:37.029Z,100800.44
2022-12-16T04:55:25.758Z,100804.53
2022-12-16T04:58:16.412Z,100798.78
2022-12-16T05:01:02.233Z,100792.19
2022-12-16T05:03:48.152Z,100796.91
2022-12-16T05:06:33.834Z,100803.81
2022-12-16T05:09:19.282Z,100804.28
2022-12-16T05:12:04.592Z,100801.28
2022-12-16T05:14:49.557Z,100791.13
2022-12-16T05:17:34.614Z,100795.03
2022-12-16T05:20:19.854Z,100799.97
2022-12-16T05:23:04.718Z,100799.38
2022-12-16T05:25:50.299Z,100807.66
2022-12-16T05:28:35.717Z,100812.94
2022-12-16T05:31:20.921Z,100812.56
2022-12-16T05:34:06.487Z,100810.00
2022-12-16T05:36:51.660Z,100821.25
2022-12-16T05:39:36.710Z,100822.34
2022-12-16T05:42:21.953Z,100829.84
2022-12-16T05:45:07.109Z,100818.19
2022-12-16T05:47:53.108Z,100822.44
2022-12-16T05:50:38.290Z,100834.03
2022-12-16T05:53:26.674Z,100846.88
2022-12-16T05:56:11.852Z,100840.34
2022-12-16T05:58:56.865Z,100847.13
2022-12-16T06:01:41.870Z,100843.19
2022-12-16T06:04:36.930Z,100849.84
2022-12-16T06:07:22.066Z,100849.16
2022-12-16T06:10:06.879Z,100864.75
2022-12-16T06:12:51.764Z,100862.41
2022-12-16T06:15:36.739Z,100868.50
2022-12-16T06:18:21.850Z,100879.03
2022-12-16T06:21:09.584Z,100881.41
2022-12-16T06:23:54.356Z,100885.13
2022-12-16T06:26:39.328Z,100889.22
2022-12-16T06:29:24.285Z,100894.38
2022-12-16T06:32:09.087Z,100896.16
2022-12-16T06:34:54.107Z,100902.13
2022-12-16T06:37:39.034Z,100903.28
2022-12-16T06:40:24.677Z,100906.00
2022-12-16T06:43:09.747Z,100902.13
2022-12-16T06:45:54.878Z,100911.03
2022-12-16T06:48:39.993Z,100912.88
2022-12-16T06:51:30.771Z,100914.19
2022-12-16T06:54:15.700Z,100917.16
2022-12-16T06:57:00.596Z,100912.72
2022-12-16T06:59:48.515Z,100923.28
2022-12-16T07:02:33.583Z,100925.38
2022-12-16T07:05:18.747Z,100928.59
2022-12-16T07:08:09.121Z,100933.72
2022-12-16T07:10:55.297Z,100940.19
2022-12-16T07:13:42.061Z,100947.28
2022-12-16T07:16:27.015Z,100949.03
2022-12-16T07:19:15.295Z,100952.75
2022-12-16T07:22:00.299Z,100968.69
2022-12-16T07:24:45.959Z,100965.44
2022-12-16T07:27:34.532Z,100967.16
2022-12-16T07:30:20.049Z,100983.47
2022-12-16T07:33:08.878Z,100985.25
2022-12-16T07:35:53.852Z,100987.59
2022-12-16T07:38:41.943Z,101002.56
2022-12-16T07:41:26.747Z,101004.75
2022-12-16T07:44:11.673Z,101009.03
2022-12-16T07:46:59.528Z,101009.88
2022-12-16T07:49:44.516Z,101014.50
2022-12-16T07:52:29.407Z,101016.13
2022-12-16T07:55:14.197Z,101015.50
2022-12-16T07:57:59.045Z,101016.13
2022-12-16T08:00:43.885Z,101021.69
2022-12-16T08:03:28.890Z,101025.72
2022-12-16T08:06:14.043Z,101027.78
2022-12-16T08:08:58.906Z,101029.69
2022-12-16T08:11:54.489Z,101029.31
2022-12-16T08:14:39.563Z,101036.75
2022-12-16T08:17:24.737Z,101040.53
2022-12-16T08:20:09.585Z,101050.94
2022-12-16T08:22:54.383Z,101054.34
2022-12-16T08:25:40.368Z,101056.28
2022-12-16T08:28:25.526Z,101049.53
2022-12-16T08:31:11.138Z,101057.03
2022-12-16T08:33:56.410Z,101052.47
2022-12-16T08:36:54.958Z,101061.31
2022-12-16T08:39:40.279Z,101061.94
2022-12-16T08:42:25.434Z,101064.81
2022-12-16T08:45:10.372Z,101065.22
2022-12-16T08:47:58.339Z,101072.00
2022-12-16T08:50:43.171Z,101066.44
2022-12-16T08:53:28.139Z,101066.97
2022-12-16T08:56:12.946Z,101074.09
2022-12-16T08:58:57.721Z,101074.66
2022-12-16T09:01:42.653Z,101068.16
2022-12-16T09:04:27.953Z,101073.16
2022-12-16T09:07:12.957Z,101076.78
2022-12-16T09:09:57.793Z,101069.78
2022-12-16T09:12:42.811Z,101075.66
2022-12-16T09:15:29.159Z,101082.69
2022-12-16T09:18:14.494Z,101075.91
2022-12-16T09:20:59.910Z,101087.00
2022-12-16T09:23:45.222Z,101090.41
2022-12-16T09:26:30.313Z,101087.13
2022-12-16T09:29:15.249Z,101090.34
2022-12-16T09:32:00.152Z,101089.69
2022-12-16T09:34:45.034Z,101095.25
2022-12-16T09:37:29.953Z,101092.41
2022-12-16T09:40:14.766Z,101096.84
2022-12-16T09:43:23.834Z,101095.47
2022-12-16T09:47:04.942Z,101097.91
2022-12-16T09:50:08.562Z,101093.69
2022-12-16T09:53:06.871Z,101089.47
2022-12-16T09:55:57.131Z,101097.66
2022-12-16T09:58:45.350Z,101103.28
2022-12-16T10:01:32.342Z,101101.41
2022-12-16T10:04:18.003Z,101096.13
2022-12-16T10:07:19.525Z,101095.81
2022-12-16T10:10:23.249Z,101100.03
2022-12-16T10:13:40.755Z,101092.41
2022-12-16T10:16:47.837Z,101102.78
2022-12-16T10:20:13.923Z,101092.75
2022-12-16T10:23:14.606Z,101086.63
2022-12-16T10:26:15.791Z,101076.19
2022-12-16T10:29:05.087Z,101078.88
2022-12-16T10:31:51.578Z,101078.03
2022-12-16T10:34:46.939Z,101081.38
2022-12-16T10:37:41.837Z,101097.06
2022-12-16T10:40:35.266Z,101090.38
2022-12-16T10:43:28.655Z,101091.19
2022-12-16T10:46:16.235Z,101091.81
2022-12-16T10:49:04.508Z,101096.25
2022-12-16T10:52:00.188Z,101102.84
2022-12-16T10:54:56.667Z,101106.69
2022-12-16T10:58:09.429Z,101105.66
2022-12-16T11:01:01.681Z,101113.28
2022-12-16T11:03:48.995Z,101107.63
2022-12-16T11:06:41.539Z,101107.34
2022-12-16T11:09:52.475Z,101103.22
2022-12-16T11:12:46.831Z,101100.69
2022-12-16T11:15:44.338Z,101098.66
2022-12-16T11:18:40.876Z,101106.59
2022-12-16T11:21:29.748Z,101102.31
2022-12-16T11:24:34.797Z,101104.38
2022-12-16T11:27:32.934Z,101103.72
2022-12-16T11:30:20.772Z,101106.78
2022-12-16T11:33:12.731Z,101103.81
2022-12-16T11:36:02.690Z,101111.81
2022-12-16T11:38:58.467Z,101121.00
2022-12-16T11:41:49.793Z,101114.91
2022-12-16T11:44:39.686Z,101127.53
2022-12-16T11:47:37.214Z,101121.31
2022-12-16T11:50:29.806Z,101126.03
2022-12-16T11:53:15.707Z,101126.31
2022-12-16T11:56:23.986Z,101129.91
2022-12-16T11:59:16.211Z,101133.78
2022-12-16T12:02:14.847Z,101127.75
2022-12-16T12:05:00.217Z,101130.69
2022-12-16T12:07:57.258Z,101123.78
2022-12-16T12:10:57.571Z,101125.38
2022-12-16T12:14:09.823Z,101129.84
2022-12-16T12:17:10.562Z,101126.06
2022-12-16T12:20:13.254Z,101127.47
2022-12-16T12:22:58.697Z,101134.53
2022-12-16T12:26:05.387Z,101139.47
2022-12-16T12:29:26.492Z,101141.34
2022-12-16T12:32:42.366Z,101137.66
2022-12-16T12:36:08.553Z,101146.28
2022-12-16T12:39:11.226Z,101143.53
2022-12-16T12:42:12.760Z,101150.72
2022-12-16T12:45:33.821Z,101151.84
2022-12-16T12:48:57.415Z,101157.97
2022-12-16T12:52:10.636Z,101152.13
2022-12-16T12:55:19.909Z,101148.31
2022-12-16T12:58:10.849Z,101160.41
2022-12-16T13:01:04.888Z,101156.16
2022-12-16T13:04:23.769Z,101162.75
2022-12-16T13:07:13.641Z,101165.22
2022-12-16T13:09:58.718Z,101165.41
2022-12-16T13:12:47.373Z,101166.06
2022-12-16T13:15:55.452Z,101175.63
2022-12-16T13:18:43.591Z,101177.59
2022-12-16T13:21:56.990Z,101178.13
2022-12-16T13:24:45.364Z,101176.94
2022-12-16T13:27:32.737Z,101188.63
2022-12-16T13:30:35.857Z,101183.75
2022-12-16T13:33:36.440Z,101192.88
2022-12-16T13:36:22.114Z,101184.38
2022-12-16T13:39:10.462Z,101190.69
2022-12-16T13:41:55.476Z,101198.75
2022-12-16T13:45:02.180Z,101198.38
2022-12-16T13:47:59.399Z,101217.75
2022-12-16T13:51:18.137Z,101218.00
2022-12-16T13:54:10.187Z,101211.78
2022-12-16T13:56:58.002Z,101223.59
2022-12-16T13:59:46.997Z,101228.63
2022-12-16T14:02:46.089Z,101232.59
2022-12-16T14:05:48.789Z,101240.34
2022-12-16T14:08:56.578Z,101241.88
2022-12-16T14:11:54.810Z,101242.69
2022-12-16T14:14:48.745Z,101252.31
2022-12-16T14:17:45.189Z,101254.22
2022-12-16T14:20:47.643Z,101259.72
2022-12-16T14:24:15.696Z,101265.66
2022-12-16T14:27:01.168Z,101256.28
2022-12-16T14:29:48.210Z,101263.41
2022-12-16T14:32:45.255Z,101270.97
2022-12-16T14:35:36.815Z,101263.97
2022-12-16T14:38:50.449Z,101275.38
2022-12-16T14:41:41.526Z,101270.88
2022-12-16T14:44:53.034Z,101272.19
2022-12-16T14:47:39.926Z,101280.69
2022-12-16T14:51:00.666Z,101278.34
2022-12-16T14:53:51.518Z,101283.72
2022-12-16T14:56:41.676Z,101284.84
2022-12-16T14:59:38.822Z,101295.63
2022-12-16T15:02:52.811Z,101294.03
2022-12-16T15:05:39.351Z,101297.16
2022-12-16T15:08:28.583Z,101300.06
2022-12-16T15:11:13.944Z,101292.72
2022-12-16T15:14:03.517Z,101300.84
2022-12-16T15:16:55.005Z,101315.97
2022-12-16T15:19:43.405Z,101307.34
2022-12-16T15:22:33.429Z,101306.34
2022-12-16T15:25:22.509Z,101312.84
2022-12-16T15:28:15.116Z,101313.41
2022-12-16T15:31:02.663Z,101318.53
2022-12-16T15:33:52.797Z,101317.66
2022-12-16T15:36:48.057Z,101325.97
2022-12-16T15:39:54.843Z,101324.09
2022-12-16T15:42:43.561Z,101320.69
2022-12-16T15:45:47.568Z,101331.56
2022-12-16T15:48:54.394Z,101347.38
2022-12-16T15:51:42.421Z,101345.09
2022-12-16T15:54:41.194Z,101351.34
2022-12-16T15:57:44.195Z,101353.41
2022-12-16T16:00:44.897Z,101350.97
2022-12-16T16:03:48.760Z,101358.63
2022-12-16T16:06:41.078Z,101357.50
2022-12-16T16:09:39.689Z,101363.34
2022-12-16T16:12:26.982Z,101367.59
2022-12-16T16:15:12.304Z,101369.31
2022-12-16T16:17:57.210Z,101375.72
2022-12-16T16:20:46.988Z,101385.31
2022-12-16T16:23:40.985Z,101392.00
2022-12-16T16:26:29.589Z,101382.19
2022-12-16T16:29:14.459Z,101388.03
2022-12-16T16:32:03.834Z,101383.03
2022-12-16T16:34:49.787Z,101394.53
2022-12-16T16:37:37.164Z,101397.50
2022-12-16T16:40:37.115Z,101391.72
2022-12-16T16:43:22.457Z,101392.38
2022-12-16T16:46:26.608Z,101399.59
2022-12-16T16:49:11.705Z,101404.13
2022-12-16T16:51:56.523Z,101409.31
2022-12-16T16:54:47.553Z,101411.22
2022-12-16T16:57:32.453Z,101407.16
2022-12-16T17:00:27.908Z,101409.31
2022-12-16T17:03:13.862Z,101409.59
2022-12-16T17:05:58.848Z,101418.59
2022-12-16T17:08:47.271Z,101412.63
2022-12-16T17:11:37.383Z,101418.88
2022-12-16T17:14:22.145Z,101412.13
2022-12-16T17:17:07.042Z,101411.00
2022-12-16T17:19:51.742Z,101408.34
2022-12-16T17:22:38.672Z,101408.34
2022-12-16T17:25:24.395Z,101420.44
2022-12-16T17:28:09.228Z,101414.78
2022-12-16T17:30:57.108Z,101416.03
2022-12-16T17:33:42.523Z,101423.78
2022-12-16T17:36:32.248Z,101417.72
2022-12-16T17:39:17.340Z,101424.72
2022-12-16T17:42:02.156Z,101425.19
2022-12-16T17:44:46.975Z,101422.34
2022-12-16T17:47:32.933Z,101428.88
2022-12-16T17:50:18.040Z,101435.75
2022-12-16T17:53:02.967Z,101444.13
2022-12-16T17:55:47.701Z,101437.41
2022-12-16T17:58:32.597Z,101444.13
2022-12-16T18:01:22.108Z,101445.94
2022-12-16T18:04:07.906Z,101452.81
2022-12-16T18:06:53.684Z,101457.53
2022-12-16T18:09:41.591Z,101465.44
2022-12-16T18:12:26.477Z,101468.19
2022-12-16T18:15:11.696Z,101469.03
2022-12-16T18:17:56.636Z,101468.53
2022-12-16T18:20:41.887Z,101475.22
2022-12-16T18:23:31.929Z,101484.72
2022-12-16T18:26:20.182Z,101475.44
2022-12-16T18:29:05.100Z,101478.28
2022-12-16T18:31:50.103Z,101468.06
2022-12-16T18:34:35.241Z,101468.06
2022-12-16T18:37:20.171Z,101471.09
2022-12-16T18:40:08.294Z,101468.63
2022-12-16T18:42:53.226Z,101476.88
2022-12-16T18:45:38.201Z,101477.03
2022-12-16T18:48:23.252Z,101484.97
2022-12-16T18:51:16.145Z,101485.94
2022-12-16T18:54:01.648Z,101493.34
2022-12-16T18:56:46.750Z,101498.06
2022-12-16T18:59:32.039Z,101501.44
2022-12-16T19:02:17.138Z,101502.47
2022-12-16T19:05:02.331Z,101496.81
2022-12-16T19:07:47.280Z,101496.63
2022-12-16T19:10:32.519Z,101500.13
2022-12-16T19:13:19.828Z,101499.38
2022-12-16T19:16:15.607Z,101507.72
2022-12-16T19:19:00.737Z,101500.63
2022-12-16T19:21:56.961Z,101513.00
2022-12-16T19:24:43.177Z,101516.56
2022-12-16T19:27:35.945Z,101517.91
2022-12-16T19:30:21.534Z,101517.16
2022-12-16T19:33:07.392Z,101510.88
2022-12-16T19:35:52.315Z,101526.22
2022-12-16T19:38:38.434Z,101530.97
2022-12-16T19:41:23.942Z,101528.47
2022-12-16T19:44:08.906Z,101540.59
2022-12-16T19:46:55.976Z,101546.53
2022-12-16T19:49:59.225Z,101545.94
2022-12-16T19:52:44.104Z,101543.94
2022-12-16T19:55:29.055Z,101554.84
2022-12-16T19:58:14.043Z,101558.53
2022-12-16T20:00:58.943Z,101558.53
2022-12-16T20:03:44.973Z,101562.00
2022-12-16T20:06:30.319Z,101571.00
2022-12-16T20:09:32.270Z,101565.69
2022-12-16T20:12:17.274Z,101570.16
2022-12-16T20:15:02.135Z,101576.59
2022-12-16T20:17:47.163Z,101579.91
2022-12-16T20:20:32.063Z,101586.72
2022-12-16T20:23:16.966Z,101578.53
2022-12-16T20:26:01.949Z,101588.19
2022-12-16T20:28:47.233Z,101588.19
2022-12-16T20:31:32.071Z,101591.63
2022-12-16T20:34:17.086Z,101595.75
2022-12-16T20:37:02.394Z,101602.75
2022-12-16T20:39:56.409Z,101606.19
2022-12-16T20:42:53.302Z,101616.47
2022-12-16T20:45:38.923Z,101617.31
2022-12-16T20:48:24.108Z,101619.22
2022-12-16T20:51:22.618Z,101619.91
2022-12-16T20:54:10.948Z,101612.16
2022-12-16T20:56:56.587Z,101618.16
2022-12-16T20:59:42.169Z,101630.66
2022-12-16T21:02:36.474Z,101622.19
2022-12-16T21:05:28.428Z,101633.31
2022-12-16T21:08:13.335Z,101631.53
2022-12-16T21:10:58.209Z,101629.34
2022-12-16T21:13:43.880Z,101627.94
2022-12-16T21:16:29.035Z,101637.22
2022-12-16T21:19:14.281Z,101639.59
2022-12-16T21:22:02.016Z,101646.13
2022-12-16T21:24:47.317Z,101651.16
2022-12-16T21:27:32.521Z,101649.41
2022-12-16T21:30:17.385Z,101653.41
2022-12-16T21:33:02.533Z,101655.88
2022-12-16T21:35:47.948Z,101661.84
2022-12-16T21:38:32.965Z,101659.63
2022-12-16T21:41:17.986Z,101661.69
2022-12-16T21:44:02.952Z,101671.09
2022-12-16T21:46:47.849Z,101676.09
2022-12-16T21:49:32.708Z,101674.75
2022-12-16T21:52:17.706Z,101678.72
2022-12-16T21:55:02.635Z,101676.56
2022-12-16T21:57:47.894Z,101679.88
2022-12-16T22:00:33.413Z,101682.06
2022-12-16T22:03:18.291Z,101683.78
2022-12-16T22:06:03.517Z,101689.06
2022-12-16T22:08:48.416Z,101676.94
2022-12-16T22:11:33.833Z,101683.41
2022-12-16T22:14:19.240Z,101687.31
2022-12-16T22:17:07.297Z,101683.84
2022-12-16T22:19:52.440Z,101687.81
2022-12-16T22:22:37.339Z,101689.53
2022-12-16T22:25:23.219Z,101684.56
2022-12-16T22:28:10.946Z,101681.03
2022-12-16T22:30:56.196Z,101689.28
2022-12-16T22:33:41.765Z,101686.72
2022-12-16T22:36:29.068Z,101692.84
2022-12-16T22:39:13.936Z,101698.72
2022-12-16T22:41:58.973Z,101696.34
2022-12-16T22:44:43.824Z,101710.59
2022-12-16T22:47:28.651Z,101700.94
2022-12-16T22:50:13.624Z,101700.63
2022-12-16T22:52:58.507Z,101711.38
2022-12-16T22:55:43.457Z,101718.56
2022-12-16T22:58:29.742Z,101712.69
2022-12-16T23:01:14.977Z,101718.66
2022-12-16T23:03:59.816Z,101713.91
2022-12-16T23:06:44.715Z,101718.56
2022-12-16T23:09:29.629Z,101712.59
2022-12-16T23:12:14.600Z,101713.97
2022-12-16T23:14:59.725Z,101712.69
2022-12-16T23:17:44.746Z,101719.41
2022-12-16T23:20:30.017Z,101707.75
2022-12-16T23:23:16.052Z,101715.03
2022-12-16T23:26:01.109Z,101724.78
2022-12-16T23:28:46.466Z,101729.16
2022-12-16T23:31:31.539Z,101726.00
2022-12-16T23:34:16.714Z,101723.38
2022-12-16T23:37:02.691Z,101722.69
2022-12-16T23:39:47.633Z,101712.38
2022-12-16T23:42:32.609Z,101724.22
2022-12-16T23:45:17.571Z,101719.47
2022-12-16T23:48:02.580Z,101729.59
2022-12-16T23:50:47.433Z,101731.91
2022-12-16T23:53:32.416Z,101731.91
2022-12-16T23:56:19.314Z,101739.25
2022-12-16T23:59:07.383Z,101740.25
